sensor_id;sensor_type;location;lat;lon;timestamp;P1;durP1;ratioP1;P2;durP2;ratioP2
59145;SDS011;44928;53.074;6.646;2023-06-26T00:01:06;9.95;;;5.60;;
59145;SDS011;44928;53.074;6.646;2023-06-26T00:03:32;8.68;;;5.70;;
59145;SDS011;44928;53.074;6.646;2023-06-26T00:05:58;8.95;;;6.22;;
59145;SDS011;44928;53.074;6.646;2023-06-26T00:08:26;9.73;;;5.68;;
59145;SDS011;44928;53.074;6.646;2023-06-26T00:10:52;10.20;;;6.10;;
59145;SDS011;44928;53.074;6.646;2023-06-26T00:13:18;9.65;;;5.70;;
59145;SDS011;44928;53.074;6.646;2023-06-26T00:15:44;9.57;;;6.47;;
59145;SDS011;44928;53.074;6.646;2023-06-26T00:18:10;9.68;;;6.50;;
59145;SDS011;44928;53.074;6.646;2023-06-26T00:20:36;11.35;;;6.30;;
59145;SDS011;44928;53.074;6.646;2023-06-26T00:23:02;9.27;;;6.30;;
59145;SDS011;44928;53.074;6.646;2023-06-26T00:25:32;9.30;;;6.55;;
59145;SDS011;44928;53.074;6.646;2023-06-26T00:27:58;10.55;;;7.45;;
59145;SDS011;44928;53.074;6.646;2023-06-26T00:30:24;9.50;;;6.32;;
59145;SDS011;44928;53.074;6.646;2023-06-26T00:32:50;9.60;;;6.43;;
59145;SDS011;44928;53.074;6.646;2023-06-26T00:35:16;8.48;;;5.45;;
59145;SDS011;44928;53.074;6.646;2023-06-26T00:37:42;9.95;;;5.95;;
59145;SDS011;44928;53.074;6.646;2023-06-26T00:40:08;10.30;;;5.43;;
59145;SDS011;44928;53.074;6.646;2023-06-26T00:42:34;10.05;;;5.95;;
59145;SDS011;44928;53.074;6.646;2023-06-26T00:45:00;8.40;;;5.57;;
59145;SDS011;44928;53.074;6.646;2023-06-26T00:47:26;11.57;;;6.15;;
59145;SDS011;44928;53.074;6.646;2023-06-26T00:49:53;10.52;;;6.82;;
59145;SDS011;44928;53.074;6.646;2023-06-26T00:52:20;10.48;;;6.43;;
59145;SDS011;44928;53.074;6.646;2023-06-26T00:54:46;10.00;;;6.70;;
59145;SDS011;44928;53.074;6.646;2023-06-26T00:57:12;10.55;;;6.35;;
59145;SDS011;44928;53.074;6.646;2023-06-26T00:59:38;10.63;;;6.95;;
59145;SDS011;44928;53.074;6.646;2023-06-26T01:02:04;10.48;;;6.45;;
59145;SDS011;44928;53.074;6.646;2023-06-26T01:04:29;9.43;;;6.38;;
59145;SDS011;44928;53.074;6.646;2023-06-26T01:06:57;10.15;;;6.80;;
59145;SDS011;44928;53.074;6.646;2023-06-26T01:09:26;9.88;;;6.60;;
59145;SDS011;44928;53.074;6.646;2023-06-26T01:11:52;10.18;;;6.40;;
59145;SDS011;44928;53.074;6.646;2023-06-26T01:14:18;10.35;;;6.75;;
59145;SDS011;44928;53.074;6.646;2023-06-26T01:16:44;10.10;;;6.60;;
59145;SDS011;44928;53.074;6.646;2023-06-26T01:19:30;12.02;;;6.72;;
59145;SDS011;44928;53.074;6.646;2023-06-26T01:22:02;9.52;;;6.22;;
59145;SDS011;44928;53.074;6.646;2023-06-26T01:24:39;8.82;;;6.18;;
59145;SDS011;44928;53.074;6.646;2023-06-26T01:27:14;9.98;;;6.25;;
59145;SDS011;44928;53.074;6.646;2023-06-26T01:29:41;16.33;;;14.23;;
59145;SDS011;44928;53.074;6.646;2023-06-26T01:32:09;15.40;;;13.32;;
59145;SDS011;44928;53.074;6.646;2023-06-26T01:34:35;13.40;;;11.40;;
59145;SDS011;44928;53.074;6.646;2023-06-26T01:37:01;12.57;;;9.85;;
59145;SDS011;44928;53.074;6.646;2023-06-26T01:39:27;12.30;;;7.35;;
59145;SDS011;44928;53.074;6.646;2023-06-26T01:41:53;10.98;;;7.78;;
59145;SDS011;44928;53.074;6.646;2023-06-26T01:44:26;10.63;;;7.05;;
59145;SDS011;44928;53.074;6.646;2023-06-26T01:47:04;10.65;;;7.22;;
59145;SDS011;44928;53.074;6.646;2023-06-26T01:49:36;11.05;;;7.32;;
59145;SDS011;44928;53.074;6.646;2023-06-26T01:52:37;12.48;;;8.27;;
59145;SDS011;44928;53.074;6.646;2023-06-26T01:58:14;10.68;;;7.60;;
59145;SDS011;44928;53.074;6.646;2023-06-26T02:00:42;13.95;;;8.48;;
59145;SDS011;44928;53.074;6.646;2023-06-26T02:03:08;11.27;;;7.57;;
59145;SDS011;44928;53.074;6.646;2023-06-26T02:05:34;11.65;;;7.88;;
59145;SDS011;44928;53.074;6.646;2023-06-26T02:08:00;12.80;;;9.35;;
59145;SDS011;44928;53.074;6.646;2023-06-26T02:10:28;11.85;;;9.30;;
59145;SDS011;44928;53.074;6.646;2023-06-26T02:12:55;12.60;;;7.95;;
59145;SDS011;44928;53.074;6.646;2023-06-26T02:15:20;9.88;;;6.78;;
59145;SDS011;44928;53.074;6.646;2023-06-26T02:17:46;10.63;;;7.75;;
59145;SDS011;44928;53.074;6.646;2023-06-26T02:20:13;10.23;;;7.00;;
59145;SDS011;44928;53.074;6.646;2023-06-26T02:22:40;10.13;;;7.65;;
59145;SDS011;44928;53.074;6.646;2023-06-26T02:25:07;10.57;;;7.28;;
59145;SDS011;44928;53.074;6.646;2023-06-26T02:27:33;12.48;;;8.25;;
59145;SDS011;44928;53.074;6.646;2023-06-26T02:29:59;10.75;;;7.75;;
59145;SDS011;44928;53.074;6.646;2023-06-26T02:32:25;11.93;;;8.15;;
59145;SDS011;44928;53.074;6.646;2023-06-26T02:34:51;10.70;;;7.60;;
59145;SDS011;44928;53.074;6.646;2023-06-26T02:37:17;11.35;;;7.88;;
59145;SDS011;44928;53.074;6.646;2023-06-26T02:39:43;11.77;;;7.90;;
59145;SDS011;44928;53.074;6.646;2023-06-26T02:42:08;9.90;;;7.72;;
59145;SDS011;44928;53.074;6.646;2023-06-26T02:44:34;12.18;;;7.97;;
59145;SDS011;44928;53.074;6.646;2023-06-26T02:47:00;11.23;;;7.90;;
59145;SDS011;44928;53.074;6.646;2023-06-26T02:49:26;11.25;;;7.85;;
59145;SDS011;44928;53.074;6.646;2023-06-26T02:51:51;11.00;;;7.78;;
59145;SDS011;44928;53.074;6.646;2023-06-26T02:54:17;11.70;;;7.75;;
59145;SDS011;44928;53.074;6.646;2023-06-26T02:56:43;11.30;;;8.00;;
59145;SDS011;44928;53.074;6.646;2023-06-26T02:59:09;12.02;;;8.25;;
59145;SDS011;44928;53.074;6.646;2023-06-26T03:01:34;11.50;;;8.50;;
59145;SDS011;44928;53.074;6.646;2023-06-26T03:04:00;10.95;;;8.50;;
59145;SDS011;44928;53.074;6.646;2023-06-26T03:06:29;10.65;;;7.70;;
59145;SDS011;44928;53.074;6.646;2023-06-26T03:08:55;12.85;;;8.57;;
59145;SDS011;44928;53.074;6.646;2023-06-26T03:11:20;13.25;;;8.80;;
59145;SDS011;44928;53.074;6.646;2023-06-26T03:13:46;11.95;;;8.07;;
59145;SDS011;44928;53.074;6.646;2023-06-26T03:16:12;11.45;;;8.45;;
59145;SDS011;44928;53.074;6.646;2023-06-26T03:18:38;12.02;;;8.85;;
59145;SDS011;44928;53.074;6.646;2023-06-26T03:21:03;12.32;;;9.32;;
59145;SDS011;44928;53.074;6.646;2023-06-26T03:23:29;12.85;;;9.18;;
59145;SDS011;44928;53.074;6.646;2023-06-26T03:25:55;12.27;;;8.63;;
59145;SDS011;44928;53.074;6.646;2023-06-26T03:28:21;11.52;;;7.93;;
59145;SDS011;44928;53.074;6.646;2023-06-26T03:30:47;13.48;;;9.65;;
59145;SDS011;44928;53.074;6.646;2023-06-26T03:33:12;11.68;;;9.13;;
59145;SDS011;44928;53.074;6.646;2023-06-26T03:35:38;11.65;;;9.25;;
59145;SDS011;44928;53.074;6.646;2023-06-26T03:38:04;12.25;;;9.07;;
59145;SDS011;44928;53.074;6.646;2023-06-26T03:40:30;14.43;;;9.55;;
59145;SDS011;44928;53.074;6.646;2023-06-26T03:42:56;12.40;;;9.80;;
59145;SDS011;44928;53.074;6.646;2023-06-26T03:45:22;13.20;;;9.68;;
59145;SDS011;44928;53.074;6.646;2023-06-26T03:47:48;13.82;;;9.40;;
59145;SDS011;44928;53.074;6.646;2023-06-26T03:50:17;11.40;;;9.20;;
59145;SDS011;44928;53.074;6.646;2023-06-26T03:52:43;12.18;;;9.10;;
59145;SDS011;44928;53.074;6.646;2023-06-26T03:55:09;12.57;;;9.05;;
59145;SDS011;44928;53.074;6.646;2023-06-26T03:57:35;13.35;;;9.60;;
59145;SDS011;44928;53.074;6.646;2023-06-26T04:00:02;11.45;;;8.90;;
59145;SDS011;44928;53.074;6.646;2023-06-26T04:02:33;12.18;;;9.38;;
59145;SDS011;44928;53.074;6.646;2023-06-26T04:04:59;12.50;;;8.98;;
59145;SDS011;44928;53.074;6.646;2023-06-26T04:07:25;16.55;;;9.23;;
59145;SDS011;44928;53.074;6.646;2023-06-26T04:09:51;14.30;;;9.68;;
59145;SDS011;44928;53.074;6.646;2023-06-26T04:12:17;12.48;;;9.10;;
59145;SDS011;44928;53.074;6.646;2023-06-26T04:14:43;11.35;;;8.68;;
59145;SDS011;44928;53.074;6.646;2023-06-26T04:17:09;12.98;;;9.45;;
59145;SDS011;44928;53.074;6.646;2023-06-26T04:19:35;13.20;;;8.77;;
59145;SDS011;44928;53.074;6.646;2023-06-26T04:22:01;14.45;;;9.10;;
59145;SDS011;44928;53.074;6.646;2023-06-26T04:24:27;12.48;;;8.18;;
59145;SDS011;44928;53.074;6.646;2023-06-26T04:26:53;13.38;;;9.32;;
59145;SDS011;44928;53.074;6.646;2023-06-26T04:29:22;13.48;;;8.75;;
59145;SDS011;44928;53.074;6.646;2023-06-26T04:31:51;11.38;;;8.40;;
59145;SDS011;44928;53.074;6.646;2023-06-26T04:34:17;12.98;;;9.10;;
59145;SDS011;44928;53.074;6.646;2023-06-26T04:36:42;12.40;;;8.10;;
59145;SDS011;44928;53.074;6.646;2023-06-26T04:39:13;11.93;;;8.00;;
59145;SDS011;44928;53.074;6.646;2023-06-26T04:41:40;12.50;;;8.00;;
59145;SDS011;44928;53.074;6.646;2023-06-26T04:44:06;13.70;;;7.97;;
59145;SDS011;44928;53.074;6.646;2023-06-26T04:46:32;11.32;;;7.88;;
59145;SDS011;44928;53.074;6.646;2023-06-26T04:48:57;14.10;;;8.30;;
59145;SDS011;44928;53.074;6.646;2023-06-26T04:51:24;12.50;;;7.93;;
59145;SDS011;44928;53.074;6.646;2023-06-26T04:53:52;12.60;;;7.35;;
59145;SDS011;44928;53.074;6.646;2023-06-26T04:56:18;12.35;;;7.95;;
59145;SDS011;44928;53.074;6.646;2023-06-26T04:58:43;14.48;;;7.68;;
59145;SDS011;44928;53.074;6.646;2023-06-26T05:01:09;11.95;;;7.38;;
59145;SDS011;44928;53.074;6.646;2023-06-26T05:03:35;13.00;;;7.15;;
59145;SDS011;44928;53.074;6.646;2023-06-26T05:06:02;13.13;;;7.68;;
59145;SDS011;44928;53.074;6.646;2023-06-26T05:08:27;18.05;;;8.20;;
59145;SDS011;44928;53.074;6.646;2023-06-26T05:10:53;12.95;;;7.32;;
59145;SDS011;44928;53.074;6.646;2023-06-26T05:13:23;12.43;;;7.13;;
59145;SDS011;44928;53.074;6.646;2023-06-26T05:15:52;13.05;;;7.30;;
59145;SDS011;44928;53.074;6.646;2023-06-26T05:18:18;14.23;;;7.05;;
59145;SDS011;44928;53.074;6.646;2023-06-26T05:20:44;13.60;;;7.90;;
59145;SDS011;44928;53.074;6.646;2023-06-26T05:23:10;14.77;;;7.20;;
59145;SDS011;44928;53.074;6.646;2023-06-26T05:25:37;14.85;;;7.97;;
59145;SDS011;44928;53.074;6.646;2023-06-26T05:28:04;12.85;;;7.45;;
59145;SDS011;44928;53.074;6.646;2023-06-26T05:30:30;16.70;;;7.57;;
59145;SDS011;44928;53.074;6.646;2023-06-26T05:32:59;15.25;;;7.97;;
59145;SDS011;44928;53.074;6.646;2023-06-26T05:35:29;13.85;;;7.25;;
59145;SDS011;44928;53.074;6.646;2023-06-26T05:37:56;14.10;;;7.40;;
59145;SDS011;44928;53.074;6.646;2023-06-26T05:40:23;13.70;;;7.80;;
59145;SDS011;44928;53.074;6.646;2023-06-26T05:42:50;15.98;;;7.65;;
59145;SDS011;44928;53.074;6.646;2023-06-26T05:45:16;13.45;;;7.88;;
59145;SDS011;44928;53.074;6.646;2023-06-26T05:47:41;14.82;;;7.43;;
59145;SDS011;44928;53.074;6.646;2023-06-26T05:50:08;15.68;;;7.80;;
59145;SDS011;44928;53.074;6.646;2023-06-26T05:52:35;13.93;;;7.63;;
59145;SDS011;44928;53.074;6.646;2023-06-26T05:55:02;16.95;;;8.07;;
59145;SDS011;44928;53.074;6.646;2023-06-26T05:57:29;13.93;;;7.45;;
59145;SDS011;44928;53.074;6.646;2023-06-26T05:59:55;17.15;;;7.38;;
59145;SDS011;44928;53.074;6.646;2023-06-26T06:02:21;14.35;;;6.90;;
59145;SDS011;44928;53.074;6.646;2023-06-26T06:04:47;13.90;;;6.60;;
59145;SDS011;44928;53.074;6.646;2023-06-26T06:07:13;15.90;;;6.40;;
59145;SDS011;44928;53.074;6.646;2023-06-26T06:09:39;14.82;;;6.75;;
59145;SDS011;44928;53.074;6.646;2023-06-26T06:12:05;13.27;;;5.65;;
59145;SDS011;44928;53.074;6.646;2023-06-26T06:14:32;12.10;;;5.25;;
59145;SDS011;44928;53.074;6.646;2023-06-26T06:16:59;12.30;;;5.10;;
59145;SDS011;44928;53.074;6.646;2023-06-26T06:19:25;14.27;;;5.32;;
59145;SDS011;44928;53.074;6.646;2023-06-26T06:21:51;13.45;;;5.10;;
59145;SDS011;44928;53.074;6.646;2023-06-26T06:24:17;12.77;;;5.00;;
59145;SDS011;44928;53.074;6.646;2023-06-26T06:26:43;12.73;;;4.65;;
59145;SDS011;44928;53.074;6.646;2023-06-26T06:29:08;12.52;;;3.92;;
59145;SDS011;44928;53.074;6.646;2023-06-26T06:31:34;11.80;;;4.20;;
59145;SDS011;44928;53.074;6.646;2023-06-26T06:34:00;10.50;;;3.47;;
59145;SDS011;44928;53.074;6.646;2023-06-26T06:36:26;11.55;;;3.15;;
59145;SDS011;44928;53.074;6.646;2023-06-26T06:38:52;11.45;;;3.60;;
59145;SDS011;44928;53.074;6.646;2023-06-26T06:41:19;10.52;;;2.92;;
59145;SDS011;44928;53.074;6.646;2023-06-26T06:43:45;12.77;;;3.70;;
59145;SDS011;44928;53.074;6.646;2023-06-26T06:46:11;10.00;;;3.00;;
59145;SDS011;44928;53.074;6.646;2023-06-26T06:48:36;8.85;;;3.05;;
59145;SDS011;44928;53.074;6.646;2023-06-26T06:51:02;8.38;;;2.60;;
59145;SDS011;44928;53.074;6.646;2023-06-26T06:53:28;11.10;;;2.70;;
59145;SDS011;44928;53.074;6.646;2023-06-26T06:55:55;10.75;;;3.10;;
59145;SDS011;44928;53.074;6.646;2023-06-26T06:58:21;10.30;;;3.10;;
59145;SDS011;44928;53.074;6.646;2023-06-26T07:00:48;12.13;;;3.28;;
59145;SDS011;44928;53.074;6.646;2023-06-26T07:03:14;10.75;;;2.58;;
59145;SDS011;44928;53.074;6.646;2023-06-26T07:05:43;9.93;;;2.40;;
59145;SDS011;44928;53.074;6.646;2023-06-26T07:08:09;12.60;;;3.17;;
59145;SDS011;44928;53.074;6.646;2023-06-26T07:10:35;9.70;;;2.65;;
59145;SDS011;44928;53.074;6.646;2023-06-26T07:13:01;6.88;;;2.38;;
59145;SDS011;44928;53.074;6.646;2023-06-26T07:15:27;11.27;;;2.60;;
59145;SDS011;44928;53.074;6.646;2023-06-26T07:17:52;9.10;;;2.40;;
59145;SDS011;44928;53.074;6.646;2023-06-26T07:20:18;11.75;;;2.47;;
59145;SDS011;44928;53.074;6.646;2023-06-26T07:22:44;8.60;;;2.35;;
59145;SDS011;44928;53.074;6.646;2023-06-26T07:25:11;13.00;;;2.33;;
59145;SDS011;44928;53.074;6.646;2023-06-26T07:27:37;7.80;;;2.22;;
59145;SDS011;44928;53.074;6.646;2023-06-26T07:30:03;10.15;;;2.67;;
59145;SDS011;44928;53.074;6.646;2023-06-26T07:32:29;10.40;;;2.65;;
59145;SDS011;44928;53.074;6.646;2023-06-26T07:34:55;7.88;;;2.30;;
59145;SDS011;44928;53.074;6.646;2023-06-26T07:37:21;11.02;;;2.63;;
59145;SDS011;44928;53.074;6.646;2023-06-26T07:39:47;11.05;;;2.53;;
59145;SDS011;44928;53.074;6.646;2023-06-26T07:42:16;12.93;;;2.60;;
59145;SDS011;44928;53.074;6.646;2023-06-26T07:44:42;10.15;;;2.63;;
59145;SDS011;44928;53.074;6.646;2023-06-26T07:47:08;9.38;;;2.45;;
59145;SDS011;44928;53.074;6.646;2023-06-26T07:49:34;7.82;;;1.88;;
59145;SDS011;44928;53.074;6.646;2023-06-26T07:52:00;10.15;;;2.20;;
59145;SDS011;44928;53.074;6.646;2023-06-26T07:54:26;7.20;;;2.10;;
59145;SDS011;44928;53.074;6.646;2023-06-26T07:56:55;8.45;;;2.30;;
59145;SDS011;44928;53.074;6.646;2023-06-26T07:59:23;7.90;;;1.80;;
59145;SDS011;44928;53.074;6.646;2023-06-26T08:01:50;7.60;;;2.00;;
59145;SDS011;44928;53.074;6.646;2023-06-26T08:04:20;8.27;;;2.10;;
59145;SDS011;44928;53.074;6.646;2023-06-26T08:06:48;8.30;;;2.00;;
59145;SDS011;44928;53.074;6.646;2023-06-26T08:09:14;8.77;;;1.88;;
59145;SDS011;44928;53.074;6.646;2023-06-26T08:11:41;7.57;;;2.03;;
59145;SDS011;44928;53.074;6.646;2023-06-26T08:14:06;8.98;;;1.90;;
59145;SDS011;44928;53.074;6.646;2023-06-26T08:16:32;7.95;;;2.00;;
59145;SDS011;44928;53.074;6.646;2023-06-26T08:18:58;8.98;;;1.80;;
59145;SDS011;44928;53.074;6.646;2023-06-26T08:21:24;8.10;;;1.83;;
59145;SDS011;44928;53.074;6.646;2023-06-26T08:23:51;7.20;;;1.40;;
59145;SDS011;44928;53.074;6.646;2023-06-26T08:26:17;10.07;;;1.90;;
59145;SDS011;44928;53.074;6.646;2023-06-26T08:28:42;8.07;;;1.90;;
59145;SDS011;44928;53.074;6.646;2023-06-26T08:31:08;7.13;;;1.98;;
59145;SDS011;44928;53.074;6.646;2023-06-26T08:33:34;5.72;;;1.83;;
59145;SDS011;44928;53.074;6.646;2023-06-26T08:36:00;6.90;;;1.60;;
59145;SDS011;44928;53.074;6.646;2023-06-26T08:38:25;9.82;;;1.83;;
59145;SDS011;44928;53.074;6.646;2023-06-26T08:40:51;7.03;;;1.50;;
59145;SDS011;44928;53.074;6.646;2023-06-26T08:43:17;6.32;;;1.50;;
59145;SDS011;44928;53.074;6.646;2023-06-26T08:45:44;5.55;;;1.50;;
59145;SDS011;44928;53.074;6.646;2023-06-26T08:48:11;8.32;;;2.80;;
59145;SDS011;44928;53.074;6.646;2023-06-26T08:50:38;6.65;;;1.80;;
59145;SDS011;44928;53.074;6.646;2023-06-26T08:58:11;7.97;;;1.85;;
59145;SDS011;44928;53.074;6.646;2023-06-26T09:00:38;8.85;;;1.90;;
59145;SDS011;44928;53.074;6.646;2023-06-26T09:03:04;6.25;;;1.90;;
59145;SDS011;44928;53.074;6.646;2023-06-26T09:05:31;7.18;;;2.20;;
59145;SDS011;44928;53.074;6.646;2023-06-26T09:07:57;7.45;;;1.95;;
59145;SDS011;44928;53.074;6.646;2023-06-26T09:10:23;7.53;;;2.00;;
59145;SDS011;44928;53.074;6.646;2023-06-26T09:12:49;7.03;;;1.90;;
59145;SDS011;44928;53.074;6.646;2023-06-26T09:15:15;8.77;;;2.00;;
59145;SDS011;44928;53.074;6.646;2023-06-26T09:17:44;6.57;;;2.10;;
59145;SDS011;44928;53.074;6.646;2023-06-26T09:20:11;8.30;;;2.40;;
59145;SDS011;44928;53.074;6.646;2023-06-26T09:22:41;7.22;;;2.05;;
59145;SDS011;44928;53.074;6.646;2023-06-26T09:25:12;7.90;;;2.20;;
59145;SDS011;44928;53.074;6.646;2023-06-26T09:27:37;6.55;;;2.20;;
59145;SDS011;44928;53.074;6.646;2023-06-26T09:30:03;7.78;;;1.98;;
59145;SDS011;44928;53.074;6.646;2023-06-26T09:32:33;5.20;;;1.90;;
59145;SDS011;44928;53.074;6.646;2023-06-26T09:37:28;7.57;;;1.98;;
59145;SDS011;44928;53.074;6.646;2023-06-26T09:39:54;8.70;;;1.98;;
59145;SDS011;44928;53.074;6.646;2023-06-26T09:42:20;5.40;;;1.75;;
59145;SDS011;44928;53.074;6.646;2023-06-26T09:44:46;6.85;;;1.88;;
59145;SDS011;44928;53.074;6.646;2023-06-26T09:47:16;6.60;;;2.05;;
59145;SDS011;44928;53.074;6.646;2023-06-26T09:49:44;5.53;;;1.77;;
59145;SDS011;44928;53.074;6.646;2023-06-26T09:52:13;6.90;;;1.70;;
59145;SDS011;44928;53.074;6.646;2023-06-26T09:54:41;7.68;;;2.05;;
59145;SDS011;44928;53.074;6.646;2023-06-26T09:57:13;8.00;;;2.17;;
59145;SDS011;44928;53.074;6.646;2023-06-26T09:59:42;9.32;;;2.30;;
59145;SDS011;44928;53.074;6.646;2023-06-26T10:02:11;7.82;;;2.38;;
59145;SDS011;44928;53.074;6.646;2023-06-26T10:04:37;8.27;;;2.00;;
59145;SDS011;44928;53.074;6.646;2023-06-26T10:07:08;6.30;;;2.40;;
59145;SDS011;44928;53.074;6.646;2023-06-26T10:09:45;7.65;;;2.20;;
59145;SDS011;44928;53.074;6.646;2023-06-26T10:12:17;7.03;;;2.10;;
59145;SDS011;44928;53.074;6.646;2023-06-26T10:14:45;6.45;;;2.30;;
59145;SDS011;44928;53.074;6.646;2023-06-26T10:17:11;6.55;;;1.90;;
59145;SDS011;44928;53.074;6.646;2023-06-26T10:19:42;7.68;;;2.10;;
59145;SDS011;44928;53.074;6.646;2023-06-26T10:22:09;6.18;;;2.10;;
59145;SDS011;44928;53.074;6.646;2023-06-26T10:24:38;8.23;;;2.13;;
59145;SDS011;44928;53.074;6.646;2023-06-26T10:27:25;8.93;;;2.85;;
59145;SDS011;44928;53.074;6.646;2023-06-26T10:29:59;6.65;;;2.40;;
59145;SDS011;44928;53.074;6.646;2023-06-26T10:32:28;7.28;;;2.30;;
59145;SDS011;44928;53.074;6.646;2023-06-26T10:34:55;7.47;;;2.20;;
59145;SDS011;44928;53.074;6.646;2023-06-26T10:37:21;5.53;;;1.92;;
59145;SDS011;44928;53.074;6.646;2023-06-26T10:40:22;5.55;;;1.92;;
59145;SDS011;44928;53.074;6.646;2023-06-26T10:42:51;6.43;;;1.65;;
59145;SDS011;44928;53.074;6.646;2023-06-26T10:45:33;5.65;;;2.00;;
59145;SDS011;44928;53.074;6.646;2023-06-26T10:47:59;7.57;;;1.90;;
59145;SDS011;44928;53.074;6.646;2023-06-26T10:50:29;6.57;;;1.80;;
59145;SDS011;44928;53.074;6.646;2023-06-26T10:55:48;5.07;;;1.73;;
59145;SDS011;44928;53.074;6.646;2023-06-26T10:58:27;6.45;;;2.10;;
59145;SDS011;44928;53.074;6.646;2023-06-26T11:03:41;7.90;;;1.80;;
59145;SDS011;44928;53.074;6.646;2023-06-26T11:06:09;5.72;;;1.95;;
59145;SDS011;44928;53.074;6.646;2023-06-26T11:08:49;6.20;;;2.05;;
59145;SDS011;44928;53.074;6.646;2023-06-26T11:11:16;6.70;;;2.03;;
59145;SDS011;44928;53.074;6.646;2023-06-26T11:13:44;6.30;;;2.00;;
59145;SDS011;44928;53.074;6.646;2023-06-26T11:16:26;6.80;;;1.80;;
59145;SDS011;44928;53.074;6.646;2023-06-26T11:18:59;5.40;;;1.55;;
59145;SDS011;44928;53.074;6.646;2023-06-26T11:21:26;7.82;;;1.75;;
59145;SDS011;44928;53.074;6.646;2023-06-26T11:24:02;7.32;;;1.65;;
59145;SDS011;44928;53.074;6.646;2023-06-26T11:26:29;6.47;;;1.77;;
59145;SDS011;44928;53.074;6.646;2023-06-26T11:28:55;6.90;;;1.67;;
59145;SDS011;44928;53.074;6.646;2023-06-26T11:31:29;7.28;;;2.20;;
59145;SDS011;44928;53.074;6.646;2023-06-26T11:34:06;5.78;;;1.52;;
59145;SDS011;44928;53.074;6.646;2023-06-26T11:36:39;9.00;;;2.00;;
59145;SDS011;44928;53.074;6.646;2023-06-26T11:39:48;7.63;;;2.00;;
59145;SDS011;44928;53.074;6.646;2023-06-26T11:42:14;7.53;;;1.55;;
59145;SDS011;44928;53.074;6.646;2023-06-26T11:44:40;8.85;;;1.98;;
59145;SDS011;44928;53.074;6.646;2023-06-26T11:47:17;6.00;;;1.55;;
59145;SDS011;44928;53.074;6.646;2023-06-26T11:49:46;7.60;;;1.73;;
59145;SDS011;44928;53.074;6.646;2023-06-26T11:52:17;6.75;;;1.83;;
59145;SDS011;44928;53.074;6.646;2023-06-26T11:54:43;5.65;;;1.52;;
59145;SDS011;44928;53.074;6.646;2023-06-26T11:57:14;6.63;;;1.60;;
59145;SDS011;44928;53.074;6.646;2023-06-26T11:59:40;2.90;;;0.90;;
59145;SDS011;44928;53.074;6.646;2023-06-26T12:02:10;9.85;;;1.65;;
59145;SDS011;44928;53.074;6.646;2023-06-26T12:04:38;5.75;;;1.35;;
59145;SDS011;44928;53.074;6.646;2023-06-26T12:07:06;5.30;;;1.60;;
59145;SDS011;44928;53.074;6.646;2023-06-26T12:09:41;6.60;;;1.48;;
59145;SDS011;44928;53.074;6.646;2023-06-26T12:12:13;6.38;;;1.40;;
59145;SDS011;44928;53.074;6.646;2023-06-26T12:14:41;5.63;;;1.23;;
59145;SDS011;44928;53.074;6.646;2023-06-26T12:17:09;7.53;;;1.55;;
59145;SDS011;44928;53.074;6.646;2023-06-26T12:19:36;8.85;;;1.48;;
59145;SDS011;44928;53.074;6.646;2023-06-26T12:22:07;5.57;;;1.30;;
59145;SDS011;44928;53.074;6.646;2023-06-26T12:24:33;6.43;;;1.65;;
59145;SDS011;44928;53.074;6.646;2023-06-26T12:27:02;8.20;;;1.33;;
59145;SDS011;44928;53.074;6.646;2023-06-26T12:31:59;7.88;;;1.50;;
59145;SDS011;44928;53.074;6.646;2023-06-26T12:34:30;10.05;;;1.63;;
59145;SDS011;44928;53.074;6.646;2023-06-26T12:37:01;6.75;;;1.40;;
59145;SDS011;44928;53.074;6.646;2023-06-26T12:39:28;6.20;;;1.55;;
59145;SDS011;44928;53.074;6.646;2023-06-26T12:42:02;4.93;;;1.48;;
59145;SDS011;44928;53.074;6.646;2023-06-26T12:44:28;5.22;;;1.42;;
59145;SDS011;44928;53.074;6.646;2023-06-26T12:46:56;5.22;;;1.45;;
59145;SDS011;44928;53.074;6.646;2023-06-26T12:49:39;6.82;;;1.50;;
59145;SDS011;44928;53.074;6.646;2023-06-26T12:52:16;7.47;;;1.60;;
59145;SDS011;44928;53.074;6.646;2023-06-26T12:54:44;7.55;;;1.70;;
59145;SDS011;44928;53.074;6.646;2023-06-26T12:57:12;6.25;;;1.23;;
59145;SDS011;44928;53.074;6.646;2023-06-26T12:59:41;7.47;;;1.63;;
59145;SDS011;44928;53.074;6.646;2023-06-26T13:02:07;7.32;;;1.50;;
59145;SDS011;44928;53.074;6.646;2023-06-26T13:04:34;6.15;;;1.42;;
59145;SDS011;44928;53.074;6.646;2023-06-26T13:07:00;6.47;;;1.20;;
59145;SDS011;44928;53.074;6.646;2023-06-26T13:09:26;5.63;;;1.85;;
59145;SDS011;44928;53.074;6.646;2023-06-26T13:11:58;5.20;;;1.52;;
59145;SDS011;44928;53.074;6.646;2023-06-26T13:14:24;6.30;;;1.17;;
59145;SDS011;44928;53.074;6.646;2023-06-26T13:16:51;5.93;;;1.40;;
59145;SDS011;44928;53.074;6.646;2023-06-26T13:19:17;5.85;;;1.23;;
59145;SDS011;44928;53.074;6.646;2023-06-26T13:21:43;7.05;;;1.20;;
59145;SDS011;44928;53.074;6.646;2023-06-26T13:24:09;6.57;;;1.40;;
59145;SDS011;44928;53.074;6.646;2023-06-26T13:26:34;5.22;;;1.27;;
59145;SDS011;44928;53.074;6.646;2023-06-26T13:29:00;8.20;;;1.25;;
59145;SDS011;44928;53.074;6.646;2023-06-26T13:31:26;5.78;;;1.30;;
59145;SDS011;44928;53.074;6.646;2023-06-26T13:33:52;6.82;;;1.30;;
59145;SDS011;44928;53.074;6.646;2023-06-26T13:36:18;6.78;;;1.40;;
59145;SDS011;44928;53.074;6.646;2023-06-26T13:38:45;6.57;;;1.50;;
59145;SDS011;44928;53.074;6.646;2023-06-26T13:41:11;9.13;;;1.77;;
59145;SDS011;44928;53.074;6.646;2023-06-26T13:43:37;5.35;;;1.42;;
59145;SDS011;44928;53.074;6.646;2023-06-26T13:46:03;6.53;;;1.40;;
59145;SDS011;44928;53.074;6.646;2023-06-26T13:48:29;6.10;;;1.77;;
59145;SDS011;44928;53.074;6.646;2023-06-26T13:50:55;8.93;;;1.58;;
59145;SDS011;44928;53.074;6.646;2023-06-26T13:53:21;8.68;;;1.50;;
59145;SDS011;44928;53.074;6.646;2023-06-26T13:55:47;5.47;;;1.33;;
59145;SDS011;44928;53.074;6.646;2023-06-26T13:58:13;8.65;;;1.70;;
59145;SDS011;44928;53.074;6.646;2023-06-26T14:00:39;7.82;;;1.92;;
59145;SDS011;44928;53.074;6.646;2023-06-26T14:03:06;10.50;;;1.60;;
59145;SDS011;44928;53.074;6.646;2023-06-26T14:05:35;5.10;;;1.30;;
59145;SDS011;44928;53.074;6.646;2023-06-26T14:08:07;8.02;;;1.45;;
59145;SDS011;44928;53.074;6.646;2023-06-26T14:10:33;8.38;;;1.92;;
59145;SDS011;44928;53.074;6.646;2023-06-26T14:13:03;6.63;;;1.60;;
59145;SDS011;44928;53.074;6.646;2023-06-26T14:15:29;7.32;;;1.55;;
59145;SDS011;44928;53.074;6.646;2023-06-26T14:17:55;10.02;;;2.05;;
59145;SDS011;44928;53.074;6.646;2023-06-26T14:20:21;5.78;;;1.30;;
59145;SDS011;44928;53.074;6.646;2023-06-26T14:22:48;6.95;;;1.45;;
59145;SDS011;44928;53.074;6.646;2023-06-26T14:25:14;8.02;;;1.50;;
59145;SDS011;44928;53.074;6.646;2023-06-26T14:27:41;9.32;;;1.70;;
59145;SDS011;44928;53.074;6.646;2023-06-26T14:30:07;6.00;;;1.13;;
59145;SDS011;44928;53.074;6.646;2023-06-26T14:32:34;8.32;;;1.50;;
59145;SDS011;44928;53.074;6.646;2023-06-26T14:35:00;6.53;;;1.52;;
59145;SDS011;44928;53.074;6.646;2023-06-26T14:37:29;7.35;;;1.35;;
59145;SDS011;44928;53.074;6.646;2023-06-26T14:39:55;6.70;;;1.40;;
59145;SDS011;44928;53.074;6.646;2023-06-26T14:42:22;7.70;;;1.40;;
59145;SDS011;44928;53.074;6.646;2023-06-26T14:44:48;6.65;;;1.30;;
59145;SDS011;44928;53.074;6.646;2023-06-26T14:47:18;7.40;;;1.58;;
59145;SDS011;44928;53.074;6.646;2023-06-26T14:49:44;6.18;;;1.27;;
59145;SDS011;44928;53.074;6.646;2023-06-26T14:52:10;4.15;;;1.10;;
59145;SDS011;44928;53.074;6.646;2023-06-26T14:54:36;6.65;;;1.35;;
59145;SDS011;44928;53.074;6.646;2023-06-26T14:57:03;6.07;;;1.10;;
59145;SDS011;44928;53.074;6.646;2023-06-26T14:59:29;7.13;;;1.33;;
59145;SDS011;44928;53.074;6.646;2023-06-26T15:01:55;6.60;;;1.40;;